LCRA

Details ICAO LCRA (AKT)
Name Akrotiri
Region Cyprus
Timezone Asia/Nicosia (UTC+2.0)
Plans Departing 18
Arriving 21
Stats Elevation 76 ft / 23 m (AMSL)
Location 34.590417° 32.987750°
Runways 1
Magnetic Variation 4.927° E
Sunrise 2017-12-15 04:48:58 UTC / 2017-12-15 06:48:58 Local
Sunset 2017-12-15 14:40:09 UTC / 2017-12-15 16:40:09 Local
Advertisement - Login to hide

Runways

ID Width Length Bearing (true) Bearing (mag) Surface Threshold Offset Overrun Length
10 200 ft / 61 m 8,988 ft / 2,740 m 107.72° 102.79° Asphalt 0 ft / 0 m 205 ft / 62 m
28 200 ft / 61 m 8,988 ft / 2,740 m 287.74° 282.81° Asphalt 0 ft / 0 m 205 ft / 62 m

Approach Navaids

Runway Type Ident Frequency Range Bearing (true) Bearing (mag) Slope Elevation
28 Localiser AK 109.70 MHz 18 nm / 33 km 287.62° 282.69° - 76 ft / 23 m (AMSL)
28 Glidescope AK 109.70 MHz 10 nm / 19 km 287.73° 282.80° 3.00° 76 ft / 23 m (AMSL)

Map

Weather


0- 5 10 15 20 25 30 35+ Temperature / ° C

Clouds and Precipitation
Forecast for 2017-12-15 00:00 UTC. Updated an hour ago

Ground ~20,000 ft ~40,000 ft Winds

METAR

LCRA 142350Z AUTO 28005KT //// // NCD 16/11 Q1017

TAF

TAF LCRA 141933Z 1421/1515 28010KT 9999 FEW040

Frequencies

Tower 122.10 MHz TWR
Approach 122.10 MHz DIRECTOR
Approach 122.10 MHz APP
Approach 123.30 MHz DIRECTOR
Warning: Do not use this data for real-world aviation or navigation. No guarantee of current accuracy is given.